Terminal Aerodrome Forecast
Issued by NWS Rapid City, SD

Home | Current Version | Previous Version | Graphics & Text | Print | Product List | Glossary On
Versions: 1 2 3 4 5 6 7 8 9 10 11 12 13 14 15 16 17 18 19
000
FTUS43 KUNR 251700
TAFRAP
TAF
KRAP 251720Z 2518/2618 36030G40KT 4SM -SN BLSN SCT007 OVC015
      TEMPO 2518/2522 1SM -SN BLSN
     FM260100 36018G28KT 5SM -SN OVC025
     FM260900 01010KT P6SM OVC025=

USA.gov is the U.S. government's official web portal to all federal, state and local government web resources and services.